Time;durP1;ratioP1;P1;durP2;ratioP2;P2;SDS_P1;SDS_P2;PMS_P1;PMS_P2;Temp;Humidity;BMP_temperature;BMP_pressure;BME280_temperature;BME280_humidity;BME280_pressure;Samples;Min_cycle;Max_cycle;Signal;HPM_P1;HPM_P2
2024/04/06 00:08:16;;;;;;;5.90;2.80;;;;;;;14.92;67.65;98337.16;435168;1256;101097;-41
2024/04/06 00:18:24;;;;;;;4.60;2.80;;;;;;;14.90;68.18;98357.23;435416;1253;109454;-41
2024/04/06 00:28:34;;;;;;;6.30;3.00;;;;;;;14.65;69.13;98354.88;435291;1252;99956;-41
2024/04/06 00:38:40;;;;;;;9.30;3.00;;;;;;;14.40;69.76;98347.56;435178;1254;112898;-42
2024/04/06 00:48:47;;;;;;;6.80;2.80;;;;;;;14.32;70.53;98342.36;435181;1256;109352;-41
2024/04/06 00:58:54;;;;;;;6.90;2.90;;;;;;;14.33;71.06;98339.00;435353;1253;100613;-41
2024/04/06 01:09:01;;;;;;;5.40;2.30;;;;;;;14.29;71.20;98354.69;436071;1249;107194;-41
2024/04/06 01:19:07;;;;;;;2.60;2.20;;;;;;;14.33;71.29;98384.06;435142;1257;100590;-40
2024/04/06 01:29:14;;;;;;;4.00;2.20;;;;;;;14.62;71.92;98409.73;435180;1255;112157;-40
2024/04/06 01:39:21;;;;;;;3.00;1.90;;;;;;;14.84;71.65;98421.09;435328;1254;108304;-41
2024/04/06 01:49:28;;;;;;;4.40;2.10;;;;;;;14.85;71.42;98429.98;435146;1255;99378;-41
2024/04/06 01:59:35;;;;;;;5.50;1.60;;;;;;;14.75;71.01;98426.35;435181;1256;106874;-41
2024/04/06 02:09:42;;;;;;;3.70;1.40;;;;;;;14.66;70.82;98426.27;435241;1255;100579;-41
2024/04/06 02:19:48;;;;;;;4.80;1.80;;;;;;;14.59;71.00;98432.66;435318;1257;113260;-40
2024/04/06 02:29:55;;;;;;;4.30;2.20;;;;;;;14.44;71.01;98449.89;435218;1263;108286;-41
2024/04/06 02:40:02;;;;;;;2.50;1.50;;;;;;;14.22;71.14;98454.05;435238;1257;99937;-41
2024/04/06 02:50:10;;;;;;;2.10;1.20;;;;;;;14.07;70.98;98469.07;435347;1251;108461;-41
2024/04/06 03:00:16;;;;;;;1.50;1.00;;;;;;;13.94;70.94;98492.68;435302;1251;100597;-42
2024/04/06 03:10:22;;;;;;;7.30;2.40;;;;;;;13.76;71.48;98500.63;435381;1263;112604;-40
2024/04/06 03:20:29;;;;;;;6.50;1.70;;;;;;;13.56;71.50;98515.53;435399;1257;109923;-41
2024/04/06 03:30:36;;;;;;;2.60;1.30;;;;;;;13.37;71.37;98532.66;435216;1258;100684;-42
2024/04/06 03:40:42;;;;;;;5.70;1.20;;;;;;;13.23;71.70;98542.16;435217;1251;108326;-41
2024/04/06 03:50:49;;;;;;;3.90;0.90;;;;;;;13.14;71.92;98536.70;435334;1256;99410;-40
2024/04/06 04:00:56;;;;;;;3.60;0.90;;;;;;;12.96;72.12;98552.23;435192;1251;112332;-40
2024/04/06 04:11:04;;;;;;;3.50;1.00;;;;;;;12.83;72.15;98568.10;435135;1254;107612;-41
2024/04/06 04:21:10;;;;;;;2.00;0.70;;;;;;;12.82;72.33;98586.19;435106;1257;100575;-41
2024/04/06 04:31:17;;;;;;;6.10;1.10;;;;;;;12.80;72.39;98602.88;435147;1258;109560;-41
2024/04/06 04:41:22;;;;;;;1.30;0.90;;;;;;;12.70;72.59;98611.37;435321;1255;100593;-41
2024/04/06 04:51:29;;;;;;;2.10;1.30;;;;;;;12.57;72.73;98620.41;435249;1255;114394;-41
2024/04/06 05:01:35;;;;;;;4.10;2.70;;;;;;;12.52;72.80;98636.15;435041;1251;106860;-41
2024/04/06 05:11:43;;;;;;;9.90;7.00;;;;;;;12.57;73.05;98655.81;435204;1256;100587;-42
2024/04/06 05:21:50;;;;;;;9.00;3.70;;;;;;;12.67;73.39;98660.78;435158;1257;107696;-41
2024/04/06 05:31:58;;;;;;;3.50;2.10;;;;;;;12.75;73.61;98666.58;435372;1257;100581;-41
2024/04/06 05:42:05;;;;;;;8.10;4.40;;;;;;;12.81;73.69;98674.33;434936;1258;546436;-41
2024/04/06 05:52:12;;;;;;;4.50;2.50;;;;;;;12.86;73.73;98684.11;435270;1251;108442;-41
2024/04/06 06:02:19;;;;;;;4.00;1.90;;;;;;;12.99;74.01;98683.75;435163;1256;100552;-43
2024/04/06 06:12:26;;;;;;;3.00;1.30;;;;;;;13.20;74.22;98686.15;435213;1251;107163;-41
2024/04/06 06:22:33;;;;;;;3.80;2.00;;;;;;;13.39;74.53;98691.83;435526;1256;99348;-40
2024/04/06 06:32:39;;;;;;;11.20;4.00;;;;;;;13.69;74.60;98697.50;435198;1255;114651;-41
2024/04/06 06:42:46;;;;;;;6.70;2.20;;;;;;;14.17;74.48;98701.86;435116;1256;109689;-41
2024/04/06 06:52:53;;;;;;;3.70;1.70;;;;;;;14.61;74.48;98705.95;435125;1255;99407;-40
2024/04/06 07:02:59;;;;;;;3.70;1.50;;;;;;;15.06;74.33;98715.29;435070;1256;109407;-42
2024/04/06 07:13:04;;;;;;;4.20;2.00;;;;;;;15.85;74.12;98723.02;435344;1254;100594;-41
2024/04/06 07:23:11;;;;;;;3.80;2.00;;;;;;;16.61;73.68;98728.11;435260;1257;112015;-41
2024/04/06 07:33:17;;;;;;;1.60;1.40;;;;;;;17.28;72.79;98727.80;435141;1256;107955;-41
2024/04/06 07:43:24;;;;;;;3.90;1.40;;;;;;;17.82;70.98;98723.66;435270;1251;100620;-42
2024/04/06 07:53:30;;;;;;;6.30;1.70;;;;;;;18.15;69.82;98732.33;435170;1256;108265;-40
2024/04/06 08:03:36;;;;;;;1.90;1.40;;;;;;;18.31;68.66;98732.55;435228;1251;99295;-41
2024/04/06 08:13:43;;;;;;;3.30;1.10;;;;;;;18.73;67.08;98734.53;435287;1250;114438;-41
2024/04/06 08:23:50;;;;;;;3.50;1.30;;;;;;;19.03;65.21;98736.53;435202;1256;107244;-41
2024/04/06 08:33:57;;;;;;;3.60;1.10;;;;;;;19.67;64.55;98729.02;435247;1256;100754;-39
2024/04/06 08:44:04;;;;;;;5.50;0.90;;;;;;;19.84;62.88;98736.52;435204;1256;108644;-41
2024/04/06 08:54:11;;;;;;;2.50;1.00;;;;;;;19.58;61.05;98746.27;435442;1251;99365;-41
2024/04/06 09:04:18;;;;;;;3.90;1.20;;;;;;;19.05;61.04;98753.99;435200;1251;113605;-41
2024/04/06 09:14:25;;;;;;;3.40;1.30;;;;;;;18.60;59.31;98756.41;435260;1256;105704;-40
2024/04/06 09:24:32;;;;;;;5.00;1.30;;;;;;;18.40;60.50;98764.77;435229;1251;99388;-41
2024/04/06 09:34:49;;;;;;;2.30;1.30;;;;;;;18.56;60.71;98759.28;435193;1256;109537;-40
2024/04/06 09:44:57;;;;;;;4.30;1.60;;;;;;;18.67;60.24;98751.77;435271;1250;100664;-40
2024/04/06 09:55:04;;;;;;;6.10;1.30;;;;;;;18.92;60.28;98752.13;435130;1253;111956;-40
2024/04/06 10:05:13;;;;;;;5.60;1.70;;;;;;;19.15;59.75;98756.21;435214;1256;107353;-41
2024/04/06 10:15:21;;;;;;;10.40;2.20;;;;;;;19.17;59.42;98756.23;435197;1256;99362;-42
2024/04/06 10:25:32;;;;;;;8.50;2.20;;;;;;;19.40;59.68;98756.02;435156;1253;108711;-41
2024/04/06 10:35:38;;;;;;;3.50;1.80;;;;;;;19.41;58.93;98750.81;435357;1256;99356;-41
2024/04/06 10:45:44;;;;;;;4.10;1.50;;;;;;;19.37;58.92;98739.90;435458;1256;111684;-40
2024/04/06 10:55:52;;;;;;;5.80;1.60;;;;;;;19.95;58.20;98726.48;435288;1255;107881;-41
2024/04/06 11:06:00;;;;;;;7.60;1.70;;;;;;;20.39;57.48;98723.91;435325;1251;100575;-41
2024/04/06 11:26:13;;;;;;;3.10;1.30;;;;;;;21.17;56.20;98719.32;435325;1255;100619;-41
2024/04/06 11:36:35;;;;;;;2.20;1.00;;;;;;;20.84;55.50;98712.58;434971;1251;112494;-41
2024/04/06 11:46:41;;;;;;;3.90;1.70;;;;;;;20.72;54.90;98710.36;435237;1256;108662;-41
2024/04/06 11:56:49;;;;;;;4.80;1.30;;;;;;;20.98;54.26;98706.48;435150;1250;100593;-41
2024/04/06 12:17:01;;;;;;;3.40;1.50;;;;;;;21.21;53.02;98706.19;435179;1257;100597;-41
2024/04/06 12:27:11;;;;;;;3.90;1.50;;;;;;;21.35;52.47;98699.86;435311;1255;113395;-43
2024/04/06 12:37:17;;;;;;;2.00;1.00;;;;;;;21.27;52.50;98694.79;435434;1256;106779;-40
2024/04/06 12:47:24;;;;;;;4.20;1.30;;;;;;;21.41;52.41;98709.71;435239;1253;99328;-41
2024/04/06 12:57:39;;;;;;;4.80;1.10;;;;;;;21.36;51.22;98708.45;435383;1251;108364;-40
2024/04/06 13:07:46;;;;;;;6.20;1.40;;;;;;;21.26;50.70;98709.13;435034;1255;100606;-40
2024/04/06 13:17:57;;;;;;;4.70;1.50;;;;;;;21.01;50.43;98708.25;435411;1256;113591;-41
2024/04/06 13:28:04;;;;;;;4.50;1.30;;;;;;;20.78;50.41;98716.17;435342;1255;108230;-40
2024/04/06 13:38:11;;;;;;;2.80;1.40;;;;;;;20.71;50.73;98721.00;435178;1253;99698;-42
2024/04/06 13:48:18;;;;;;;3.40;1.50;;;;;;;20.53;51.38;98725.00;435274;1256;107574;-41
2024/04/06 13:58:24;;;;;;;5.70;1.80;;;;;;;20.27;51.46;98724.98;435148;1255;100604;-40
2024/04/06 14:08:31;;;;;;;6.90;1.60;;;;;;;20.25;52.18;98725.23;435296;1256;114276;-42
2024/04/06 14:18:36;;;;;;;5.70;2.00;;;;;;;20.28;52.04;98718.90;435444;1254;108839;-41
2024/04/06 14:28:42;;;;;;;3.60;1.30;;;;;;;20.41;52.47;98712.40;435351;1253;100563;-40
2024/04/06 14:38:49;;;;;;;7.60;1.70;;;;;;;20.34;52.60;98706.15;435238;1253;107659;-41
2024/04/06 14:48:56;;;;;;;5.20;2.10;;;;;;;20.53;52.78;98705.06;435338;1253;99318;-41
2024/04/06 14:59:01;;;;;;;4.50;2.70;;;;;;;20.74;51.64;98706.29;435380;1255;113200;-40
2024/04/06 15:09:07;;;;;;;5.20;1.90;;;;;;;20.69;51.88;98707.40;435175;1253;109341;-41
2024/04/06 15:19:14;;;;;;;2.70;1.30;;;;;;;20.69;51.83;98716.27;435298;1252;100549;-40
2024/04/06 15:29:20;;;;;;;5.30;1.40;;;;;;;20.45;51.26;98724.97;435335;1251;108030;-40
2024/04/06 15:39:29;;;;;;;2.60;1.00;;;;;;;20.28;50.68;98732.11;435327;1256;101253;-41
2024/04/06 15:49:36;;;;;;;6.50;3.10;;;;;;;20.01;51.11;98737.69;435281;1252;112893;-42
2024/04/06 15:59:42;;;;;;;8.40;4.20;;;;;;;19.93;51.64;98731.14;435229;1255;108722;-40
2024/04/06 16:09:49;;;;;;;4.40;1.30;;;;;;;19.77;51.83;98744.42;435337;1253;99387;-40
2024/04/06 16:19:56;;;;;;;5.70;1.50;;;;;;;19.52;52.07;98743.36;435250;1254;108293;-44
2024/04/06 16:30:02;;;;;;;3.70;1.50;;;;;;;19.27;52.65;98753.46;435209;1251;100491;-41
2024/04/06 16:40:11;;;;;;;6.80;3.30;;;;;;;19.01;52.99;98747.96;435216;1257;111900;-41
2024/04/06 16:50:17;;;;;;;7.10;4.00;;;;;;;18.63;53.14;98752.23;435258;1256;107322;-40
2024/04/06 17:00:24;;;;;;;29.00;12.60;;;;;;;18.27;53.71;98763.89;435280;1251;99362;-41
2024/04/06 17:10:31;;;;;;;11.70;7.00;;;;;;;17.95;54.28;98778.77;435310;1253;108064;-40
2024/04/06 17:30:44;;;;;;;23.40;9.70;;;;;;;17.07;55.38;98765.19;435335;1255;112205;-40
2024/04/06 17:40:54;;;;;;;16.70;8.30;;;;;;;16.54;56.32;98772.36;434906;1256;472908;-40
2024/04/06 17:51:01;;;;;;;26.50;12.50;;;;;;;16.04;57.35;98784.27;435166;1253;100615;-42
2024/04/06 18:01:08;;;;;;;25.70;11.90;;;;;;;15.61;58.23;98782.69;435214;1256;108820;-40
2024/04/06 18:11:15;;;;;;;29.80;11.60;;;;;;;15.30;58.99;98789.73;435242;1256;100604;-41
2024/04/06 18:31:28;;;;;;;41.40;29.10;;;;;;;14.72;60.56;98806.60;435275;1256;107010;-42
2024/04/06 18:41:35;;;;;;;40.90;30.30;;;;;;;14.35;61.45;98809.77;435349;1256;101205;-40
2024/04/06 18:51:42;;;;;;;52.50;31.60;;;;;;;14.14;62.09;98813.55;435291;1251;109782;-42
2024/04/06 19:01:48;;;;;;;59.80;36.50;;;;;;;13.96;62.65;98811.86;435124;1251;100653;-40
2024/04/06 19:11:55;;;;;;;72.10;43.00;;;;;;;13.84;63.47;98812.18;435236;1256;112327;-41
2024/04/06 19:22:03;;;;;;;86.00;54.60;;;;;;;13.76;64.02;98828.29;435340;1256;107804;-41
2024/04/06 19:32:10;;;;;;;84.90;52.80;;;;;;;13.54;64.46;98850.45;435334;1251;99701;-40
2024/04/06 19:52:38;;;;;;;83.90;53.30;;;;;;;13.32;65.23;98849.65;435206;1256;99299;-41
2024/04/06 20:02:43;;;;;;;101.60;61.70;;;;;;;13.24;65.79;98846.69;435087;1256;112699;-42
2024/04/06 20:12:51;;;;;;;88.10;54.10;;;;;;;13.14;66.52;98845.07;435198;1264;108285;-41
2024/04/06 20:33:22;;;;;;;80.20;51.40;;;;;;;13.18;67.39;98841.38;435260;1253;108685;-41
2024/04/06 20:43:29;;;;;;;72.70;46.20;;;;;;;13.21;67.54;98842.23;435136;1251;100677;-41
2024/04/06 20:53:36;;;;;;;57.90;36.70;;;;;;;13.19;67.72;98847.14;435282;1263;112247;-39
2024/04/06 21:03:41;;;;;;;65.20;41.10;;;;;;;13.26;68.23;98853.69;435175;1263;108100;-41
2024/04/06 21:13:48;;;;;;;65.70;41.70;;;;;;;13.18;68.52;98851.95;435171;1256;100693;-46
2024/04/06 21:23:55;;;;;;;68.00;38.70;;;;;;;13.15;68.85;98859.38;435140;1251;108117;-41
2024/04/06 21:34:01;;;;;;;62.40;35.20;;;;;;;13.16;68.94;98861.08;435228;1264;100616;-41
2024/04/06 21:44:08;;;;;;;53.10;30.10;;;;;;;13.10;69.11;98872.30;435168;1255;113829;-41
2024/04/06 21:54:16;;;;;;;52.90;30.70;;;;;;;12.98;69.42;98879.98;435118;1263;108376;-41
2024/04/06 22:04:22;;;;;;;47.90;28.60;;;;;;;12.90;69.67;98873.38;435401;1257;100591;-41
2024/04/06 22:14:28;;;;;;;48.80;28.40;;;;;;;12.83;69.92;98883.30;435091;1263;107537;-41
2024/04/06 22:24:35;;;;;;;60.00;32.40;;;;;;;12.73;70.15;98880.25;435296;1258;100720;-41
2024/04/06 22:34:41;;;;;;;57.50;35.40;;;;;;;12.53;70.60;98880.13;435219;1258;113766;-44
2024/04/06 22:44:48;;;;;;;58.00;34.30;;;;;;;12.45;70.87;98886.27;435095;1258;109470;-41
2024/04/06 22:54:54;;;;;;;60.30;35.50;;;;;;;12.38;71.17;98889.60;435138;1258;99669;-41
2024/04/06 23:15:09;;;;;;;57.50;34.20;;;;;;;12.24;72.06;98899.73;435070;1251;100594;-41
2024/04/06 23:25:15;;;;;;;57.50;35.70;;;;;;;12.15;72.61;98892.45;435278;1256;113254;-40
2024/04/06 23:35:22;;;;;;;56.70;34.40;;;;;;;12.13;72.88;98885.80;435244;1255;108185;-40
2024/04/06 23:45:28;;;;;;;55.40;35.90;;;;;;;12.07;73.10;98887.51;435185;1251;99933;-41
2024/04/06 23:55:35;;;;;;;56.60;34.80;;;;;;;12.05;73.23;98895.73;435190;1258;108492;-40
